Ana Sayfa
METAR-TAF:

METAR-TAF

Havaalanları :

Alpine-Casparis Municipal Airport

Alpine, Teksas, Amerika Birleşik Devletleri

Enlem: 30-23-03N, Boylam: 103-41-00W, yükseklik: 1376 m

Güncel hava durumu gözlemi

Rapor saat 05:55 UTC de 27 dakika önce yapıldı.
Sakin rüzgar
Sıcaklık 18°C
Nem 68%
Basınç 1028 hPa
Görüş mesafesi: 16.1 km
Açık gökyüzü

METAR: KE38 240555Z AUTO 00000KT 10SM CLR 18/12 A3037 RMK AO2 T01820118 10269 20173 402780167

Saat: 01:22 (06:22 UTC)


TAF: eksik

4.000'den fazla havaalanı için hava durumu gözlemleri ve tahminleri (METAR ve TAF raporları).

Kullanılabilir istasyonlar harita üzerinde sarı ve kırmızı noktalarla gösterilir.

İstasyonun adını görmek için fareyi noktanın üzerinde gezdirin.

Sonrasında hava gözlem ve tahminlerini görmek için tıklayın.

Haritayı değiştirmek için: yaklaştırmak için siyah artı işaretli yeşil düğmeye ve uzaklaştırmak için de eksi işaretli düğmeye hızla tıklayın; bitişik haritalar için yeşil okları kullanın.


METAR-TAF: